Time;durP1;ratioP1;P1;durP2;ratioP2;P2;SDS_P1;SDS_P2;PMS_P1;PMS_P2;Temp;Humidity;BMP_temperature;BMP_pressure;BME280_temperature;BME280_humidity;BME280_pressure;Samples;Min_cycle;Max_cycle;Signal;HPM_P1;HPM_P2
2021/11/27 00:01:39;;;;;;;0.47;0.43;;;;;;;19.41;77.54;101028.50;4911780;29;20040;-67
2021/11/27 00:04:07;;;;;;;0.47;0.32;;;;;;;19.37;77.56;101034.78;4919467;29;20032;-66
2021/11/27 00:06:34;;;;;;;4.55;0.65;;;;;;;19.34;77.74;101034.84;4924687;29;20515;-66
2021/11/27 00:09:05;;;;;;;0.30;0.30;;;;;;;19.24;77.65;101033.22;4931122;29;20114;-66
2021/11/27 00:11:32;;;;;;;1.70;0.57;;;;;;;19.08;77.85;101028.13;4918655;29;20130;-66
2021/11/27 00:14:00;;;;;;;0.43;0.43;;;;;;;19.01;77.87;101031.78;4900129;29;20047;-66
2021/11/27 00:16:29;;;;;;;1.08;0.32;;;;;;;18.96;77.93;101035.44;4931314;29;20069;-66
2021/11/27 00:18:57;;;;;;;0.90;0.40;;;;;;;18.94;77.86;101040.81;4911701;29;20457;-66
2021/11/27 00:21:25;;;;;;;0.43;0.40;;;;;;;18.93;77.95;101048.84;4930855;29;20432;-66
2021/11/27 00:23:54;;;;;;;0.15;0.15;;;;;;;18.86;77.69;101048.06;4937969;29;20088;-67
2021/11/27 00:26:24;;;;;;;1.25;0.93;;;;;;;18.89;77.90;101053.38;4917756;29;20040;-66
2021/11/27 00:28:52;;;;;;;0.75;0.10;;;;;;;18.83;77.63;101064.16;4923700;29;20044;-66
2021/11/27 00:31:23;;;;;;;0.57;0.52;;;;;;;18.73;77.85;101065.16;4916105;29;20036;-66
2021/11/27 00:33:51;;;;;;;0.30;0.30;;;;;;;18.66;77.99;101066.16;4927149;29;20044;-66
2021/11/27 00:36:19;;;;;;;3.50;1.08;;;;;;;18.67;77.82;101066.13;4934955;29;20516;-66
2021/11/27 00:38:47;;;;;;;0.00;0.00;;;;;;;18.68;77.74;101061.69;4935048;29;20043;-66
2021/11/27 00:41:15;;;;;;;1.67;0.47;;;;;;;18.69;77.65;101061.66;4924932;29;20519;-66
2021/11/27 00:43:45;;;;;;;0.93;0.50;;;;;;;18.75;77.48;101068.72;4916142;29;20044;-67
2021/11/27 00:46:13;;;;;;;1.25;0.35;;;;;;;18.78;77.16;101071.34;4916277;29;20079;-67
2021/11/27 00:48:41;;;;;;;2.50;0.50;;;;;;;18.80;76.97;101069.53;4921077;29;20036;-66
2021/11/27 00:51:12;;;;;;;1.13;0.57;;;;;;;18.81;76.94;101071.31;4911526;29;20542;-66
2021/11/27 00:53:41;;;;;;;0.47;0.17;;;;;;;18.78;77.03;101074.00;4912421;29;20052;-66
2021/11/27 00:56:08;;;;;;;0.57;0.20;;;;;;;18.74;76.80;101063.38;4916061;29;20089;-66
2021/11/27 00:58:36;;;;;;;0.47;0.28;;;;;;;18.71;76.71;101056.28;4945986;28;20084;-66
2021/11/27 01:01:09;;;;;;;1.88;0.38;;;;;;;18.68;76.84;101054.53;4930069;29;20512;-66
2021/11/27 01:03:39;;;;;;;0.57;0.45;;;;;;;18.65;76.92;101056.34;4919195;29;20103;-66
2021/11/27 01:06:09;;;;;;;0.43;0.40;;;;;;;18.63;76.73;101056.41;4919495;29;20059;-66
2021/11/27 01:08:37;;;;;;;0.63;0.40;;;;;;;18.61;76.84;101050.19;4924490;29;20524;-66
2021/11/27 01:11:09;;;;;;;1.35;0.10;;;;;;;18.53;76.79;101057.38;4915521;29;20104;-67
2021/11/27 01:13:38;;;;;;;1.75;0.85;;;;;;;18.41;76.88;101056.63;4914537;29;20580;-66
2021/11/27 01:16:08;;;;;;;3.55;0.73;;;;;;;18.31;77.04;101059.41;4945433;28;20051;-66
2021/11/27 01:18:37;;;;;;;0.20;0.20;;;;;;;18.14;77.34;101056.03;4945847;28;20047;-66
2021/11/27 01:21:08;;;;;;;3.60;0.50;;;;;;;18.08;77.70;101058.78;4931742;29;20048;-66
2021/11/27 01:23:37;;;;;;;0.50;0.40;;;;;;;18.12;77.45;101059.63;4930960;28;20048;-66
2021/11/27 01:26:05;;;;;;;0.17;0.03;;;;;;;18.12;77.21;101054.28;4897925;29;20414;-66
2021/11/27 01:28:33;;;;;;;3.33;0.73;;;;;;;18.15;77.14;101046.22;4893082;29;20040;-67
2021/11/27 01:31:01;;;;;;;2.55;0.75;;;;;;;18.16;76.97;101043.56;4896627;29;20044;-66
2021/11/27 01:33:33;;;;;;;1.13;0.60;;;;;;;18.19;76.82;101030.13;4895767;29;20040;-66
2021/11/27 01:36:03;;;;;;;1.35;0.47;;;;;;;18.20;76.73;101031.03;4896073;29;20060;-66
2021/11/27 01:38:31;;;;;;;0.47;0.32;;;;;;;18.20;76.53;101023.91;4914120;29;20048;-66
2021/11/27 01:40:59;;;;;;;7.30;0.55;;;;;;;18.10;76.67;101027.59;4896370;29;20052;-66
2021/11/27 01:43:28;;;;;;;0.63;0.45;;;;;;;17.96;76.95;101018.84;4901898;29;20044;-66
2021/11/27 01:45:56;;;;;;;0.10;0.10;;;;;;;17.90;77.13;101018.91;4897636;29;20415;-66
2021/11/27 01:48:24;;;;;;;2.92;0.40;;;;;;;17.85;77.24;101012.72;4923845;29;20127;-66
2021/11/27 01:50:57;;;;;;;0.40;0.30;;;;;;;17.68;77.43;101020.88;4895952;29;20049;-66
2021/11/27 01:53:27;;;;;;;0.20;0.10;;;;;;;17.53;77.65;101018.31;4880580;29;20136;-66
2021/11/27 01:55:57;;;;;;;0.55;0.52;;;;;;;17.44;77.89;101021.06;4909808;29;20063;-66
2021/11/27 01:58:25;;;;;;;0.22;0.08;;;;;;;17.43;77.68;101016.63;4900096;29;20093;-66
2021/11/27 02:00:57;;;;;;;0.43;0.17;;;;;;;17.42;77.80;101015.75;4897073;29;20060;-66
2021/11/27 02:03:24;;;;;;;1.48;0.65;;;;;;;17.43;77.72;101022.84;4902802;29;20132;-67
2021/11/27 02:06:05;;;;;;;1.05;0.40;;;;;;;17.48;77.57;101007.69;4895203;29;20077;-66
2021/11/27 02:08:34;;;;;;;7.07;0.93;;;;;;;17.56;77.17;101017.41;4897788;29;20048;-66
2021/11/27 02:11:03;;;;;;;0.22;0.10;;;;;;;17.63;76.90;101019.16;4910591;29;20709;-67
2021/11/27 02:13:35;;;;;;;0.73;0.40;;;;;;;17.67;76.69;101021.78;4910001;29;20044;-66
2021/11/27 02:16:06;;;;;;;0.88;0.85;;;;;;;17.68;76.49;101020.88;4901947;29;20049;-66
2021/11/27 02:18:34;;;;;;;3.47;1.15;;;;;;;17.68;76.44;101017.31;4899406;29;20036;-66
2021/11/27 02:21:06;;;;;;;5.22;1.58;;;;;;;17.61;76.47;101010.28;4905935;29;20572;-66
2021/11/27 02:23:35;;;;;;;0.65;0.40;;;;;;;17.51;76.77;101013.00;4905904;29;20095;-66
2021/11/27 02:26:06;;;;;;;1.08;0.70;;;;;;;17.48;77.03;101007.69;4916531;29;20128;-66
2021/11/27 02:28:41;;;;;;;0.45;0.32;;;;;;;17.56;77.03;101009.41;4926756;29;20052;-66
2021/11/27 02:31:09;;;;;;;0.55;0.20;;;;;;;17.61;76.95;101003.16;4901427;29;20044;-66
2021/11/27 02:33:37;;;;;;;2.00;0.75;;;;;;;17.66;76.85;101000.44;4929366;29;20627;-66
2021/11/27 02:36:07;;;;;;;0.63;0.43;;;;;;;17.70;76.90;100996.84;4912799;29;20056;-66
2021/11/27 02:38:35;;;;;;;2.10;0.70;;;;;;;17.71;76.80;100995.94;4897231;29;20072;-66
2021/11/27 02:41:03;;;;;;;0.60;0.60;;;;;;;17.72;77.29;101008.41;4912926;29;20048;-67
2021/11/27 02:43:31;;;;;;;0.25;0.25;;;;;;;17.78;77.43;101000.34;4927858;29;20100;-66
2021/11/27 02:45:59;;;;;;;0.00;0.00;;;;;;;17.84;77.88;100993.16;4896873;29;20080;-66
2021/11/27 02:48:27;;;;;;;0.20;0.20;;;;;;;17.90;77.94;100989.50;4913979;29;20504;-67
2021/11/27 02:50:55;;;;;;;0.30;0.13;;;;;;;17.90;77.72;100994.84;4925197;29;20048;-66
2021/11/27 02:53:24;;;;;;;0.10;0.00;;;;;;;17.91;77.70;101001.97;4916491;29;20041;-67
2021/11/27 02:55:51;;;;;;;0.10;0.10;;;;;;;17.90;78.04;101000.19;4910354;29;20053;-66
2021/11/27 02:58:19;;;;;;;0.57;0.20;;;;;;;17.93;78.48;101013.50;4912382;29;20040;-67
2021/11/27 03:00:50;;;;;;;0.20;0.10;;;;;;;17.99;78.52;101004.53;4923785;29;20111;-66
2021/11/27 03:03:18;;;;;;;0.00;0.00;;;;;;;18.00;78.46;101000.97;4897376;29;20048;-66
2021/11/27 03:05:46;;;;;;;0.00;0.00;;;;;;;18.03;78.49;101012.53;4914866;29;20612;-67
2021/11/27 03:08:14;;;;;;;1.00;0.10;;;;;;;18.03;78.44;101007.19;4911103;29;20040;-67
2021/11/27 03:10:44;;;;;;;1.55;0.82;;;;;;;18.06;78.51;101015.16;4913545;29;20508;-67
2021/11/27 03:13:11;;;;;;;1.02;0.28;;;;;;;18.06;78.51;101012.47;4896759;29;20048;-66
2021/11/27 03:15:42;;;;;;;2.17;0.52;;;;;;;18.06;78.58;101017.81;4927023;29;20072;-67
2021/11/27 03:18:11;;;;;;;0.70;0.45;;;;;;;18.10;78.51;101027.59;4881150;29;20062;-66
2021/11/27 03:20:39;;;;;;;0.17;0.17;;;;;;;18.12;78.62;101032.88;4913626;29;20123;-67
2021/11/27 03:23:07;;;;;;;0.20;0.20;;;;;;;18.09;78.54;101041.84;4930005;28;20052;-67
2021/11/27 03:25:36;;;;;;;0.95;0.20;;;;;;;18.07;78.55;101035.63;4914727;29;20052;-66
2021/11/27 03:28:07;;;;;;;0.65;0.35;;;;;;;18.08;78.58;101032.06;4910950;29;20139;-66
2021/11/27 03:30:35;;;;;;;0.13;0.13;;;;;;;18.06;78.53;101044.53;4923006;29;20052;-66
2021/11/27 03:33:06;;;;;;;0.00;0.00;;;;;;;18.04;78.43;101043.69;4927744;29;20552;-66
2021/11/27 03:35:35;;;;;;;0.20;0.20;;;;;;;18.05;78.57;101050.78;4911674;29;20040;-66
2021/11/27 03:38:05;;;;;;;0.00;0.00;;;;;;;18.06;78.59;101057.91;4910658;29;20050;-67
2021/11/27 03:40:34;;;;;;;0.13;0.05;;;;;;;18.08;78.58;101060.56;4927518;29;20059;-67
2021/11/27 03:43:02;;;;;;;0.00;0.00;;;;;;;18.09;78.67;101067.69;4911975;29;20211;-66
2021/11/27 03:45:33;;;;;;;0.20;0.10;;;;;;;18.10;78.67;101072.13;4942667;29;20091;-67
2021/11/27 03:48:06;;;;;;;0.00;0.00;;;;;;;18.05;78.56;101064.13;4912130;29;20056;-66
2021/11/27 03:50:45;;;;;;;0.05;0.05;;;;;;;17.95;78.43;101066.94;4925842;29;20054;-67
2021/11/27 03:53:15;;;;;;;1.48;0.40;;;;;;;17.92;78.54;101039.34;4917005;29;20044;-67
2021/11/27 03:55:43;;;;;;;0.68;0.47;;;;;;;17.95;78.38;101019.72;4946314;29;20051;-67
2021/11/27 03:58:12;;;;;;;0.35;0.10;;;;;;;17.97;77.92;101036.63;4930865;29;20123;-66
2021/11/27 04:00:43;;;;;;;0.50;0.10;;;;;;;18.03;77.50;101019.66;4926287;29;20497;-66
2021/11/27 04:03:14;;;;;;;0.52;0.08;;;;;;;18.07;77.46;101040.09;4921498;29;20040;-66
2021/11/27 04:05:46;;;;;;;0.52;0.47;;;;;;;18.12;77.27;101024.88;4911916;29;20048;-66
2021/11/27 04:08:14;;;;;;;0.65;0.30;;;;;;;18.12;76.84;101031.09;4919822;29;20055;-66
2021/11/27 04:10:42;;;;;;;0.20;0.17;;;;;;;18.12;76.74;101020.41;4929523;29;20039;-67
2021/11/27 04:13:09;;;;;;;0.00;0.00;;;;;;;18.13;76.80;101005.28;4930779;29;20055;-66
2021/11/27 04:15:38;;;;;;;0.55;0.43;;;;;;;18.12;76.62;101009.72;4937729;29;20119;-66
2021/11/27 04:18:08;;;;;;;0.52;0.30;;;;;;;18.14;76.67;101015.97;4913828;29;20044;-66
2021/11/27 04:20:35;;;;;;;0.17;0.17;;;;;;;18.11;76.66;101026.69;4944705;29;20142;-66
2021/11/27 04:23:04;;;;;;;0.30;0.20;;;;;;;18.11;76.75;101044.50;4945938;29;20063;-66
2021/11/27 04:25:32;;;;;;;0.60;0.60;;;;;;;18.10;76.68;101054.31;4936247;29;20056;-67
2021/11/27 04:28:00;;;;;;;1.55;0.77;;;;;;;18.10;76.69;101048.97;4922725;29;20040;-67
2021/11/27 04:30:31;;;;;;;4.18;0.47;;;;;;;18.10;76.57;101037.38;4912869;29;20155;-66
2021/11/27 04:32:59;;;;;;;0.65;0.35;;;;;;;18.10;76.51;101054.31;4911526;29;20047;-66
2021/11/27 04:35:39;;;;;;;1.10;0.47;;;;;;;18.12;76.67;101051.59;4920062;29;20385;-67
2021/11/27 04:38:12;;;;;;;0.68;0.68;;;;;;;18.09;76.21;101044.53;4935119;29;20396;-66
2021/11/27 04:40:41;;;;;;;0.43;0.10;;;;;;;18.08;76.23;101040.06;4923394;29;20052;-67
2021/11/27 04:43:11;;;;;;;0.70;0.65;;;;;;;18.06;76.10;101038.31;4927943;29;20153;-66
2021/11/27 04:45:39;;;;;;;2.03;0.85;;;;;;;18.00;76.01;101031.25;4900576;29;20048;-66
2021/11/27 04:48:07;;;;;;;0.00;0.00;;;;;;;17.97;75.93;101050.00;4911096;29;20060;-66
2021/11/27 04:50:34;;;;;;;1.63;0.93;;;;;;;17.97;76.10;101067.81;4916535;29;20458;-66
2021/11/27 04:53:11;;;;;;;4.85;1.17;;;;;;;18.00;76.09;101067.75;4948239;29;20039;-66
2021/11/27 04:55:40;;;;;;;0.70;0.60;;;;;;;18.01;76.10;101070.41;4933288;29;20051;-66
2021/11/27 04:58:12;;;;;;;4.38;0.65;;;;;;;18.04;76.03;101078.44;4918294;29;20068;-66
2021/11/27 05:00:43;;;;;;;0.10;0.10;;;;;;;18.06;75.95;101089.97;4918788;29;20639;-66
2021/11/27 05:03:14;;;;;;;0.50;0.20;;;;;;;18.03;75.82;101113.16;4913673;29;20048;-67
2021/11/27 05:05:42;;;;;;;1.15;1.02;;;;;;;18.00;75.56;101110.50;4915281;29;20036;-66
2021/11/27 05:08:12;;;;;;;1.48;0.17;;;;;;;17.99;75.31;101114.97;4914114;29;20044;-66
2021/11/27 05:10:40;;;;;;;0.20;0.20;;;;;;;17.97;74.95;101115.91;4914203;29;20435;-66
2021/11/27 05:13:07;;;;;;;0.13;0.10;;;;;;;17.95;74.69;101110.56;4920173;29;20044;-66
2021/11/27 05:15:40;;;;;;;0.32;0.28;;;;;;;17.96;74.72;101103.44;4934485;29;20126;-66
2021/11/27 05:18:13;;;;;;;0.82;0.25;;;;;;;17.96;74.77;101104.31;4910136;29;20312;-67
2021/11/27 05:21:00;;;;;;;1.85;0.35;;;;;;;17.97;74.81;101098.09;4900717;29;20536;-66
2021/11/27 05:23:29;;;;;;;0.00;0.00;;;;;;;17.99;74.86;101096.25;4912896;29;20138;-66
2021/11/27 05:26:03;;;;;;;0.98;0.38;;;;;;;17.97;75.00;101092.75;4947556;29;20047;-66
2021/11/27 05:28:51;;;;;;;0.52;0.20;;;;;;;17.99;75.07;101098.94;4928323;29;20062;-66
2021/11/27 05:31:42;;;;;;;0.68;0.30;;;;;;;18.00;75.11;101094.47;4911880;29;20078;-66
2021/11/27 05:34:33;;;;;;;0.75;0.25;;;;;;;18.01;75.07;101097.13;4914780;29;20047;-66
2021/11/27 05:37:02;;;;;;;0.10;0.10;;;;;;;18.02;75.22;101106.94;4932476;29;20040;-66
2021/11/27 05:39:32;;;;;;;0.25;0.25;;;;;;;18.04;75.30;101101.59;4945030;29;20167;-67
2021/11/27 05:42:00;;;;;;;0.70;0.32;;;;;;;18.04;75.32;101083.78;4927416;29;20072;-66
2021/11/27 05:44:29;;;;;;;0.00;0.00;;;;;;;18.03;75.33;101075.75;4924039;29;20043;-66
2021/11/27 05:46:57;;;;;;;0.00;0.00;;;;;;;17.99;75.21;101079.34;4928494;28;20046;-67
2021/11/27 05:49:24;;;;;;;0.10;0.10;;;;;;;17.96;75.13;101096.31;4948113;28;20095;-66
2021/11/27 05:52:11;;;;;;;0.32;0.32;;;;;;;17.95;75.07;101091.84;4924968;29;20051;-67
2021/11/27 05:54:40;;;;;;;0.50;0.25;;;;;;;18.00;75.03;101099.81;4928532;29;20071;-65
2021/11/27 05:57:09;;;;;;;1.23;0.35;;;;;;;18.04;74.89;101097.13;4916991;29;20055;-66
2021/11/27 05:59:37;;;;;;;0.60;0.60;;;;;;;18.11;74.97;101092.59;4907931;29;20052;-66
2021/11/27 06:02:05;;;;;;;2.20;0.63;;;;;;;18.18;75.00;101078.28;4917696;29;20071;-66
2021/11/27 06:04:33;;;;;;;2.28;1.10;;;;;;;18.23;74.83;101072.00;4913768;29;23832;-66
2021/11/27 06:07:01;;;;;;;0.88;0.32;;;;;;;18.25;74.54;101088.88;4914481;29;20095;-66
2021/11/27 06:09:28;;;;;;;1.10;0.60;;;;;;;18.35;74.67;101078.09;4925522;29;20040;-66
2021/11/27 06:11:58;;;;;;;2.22;0.73;;;;;;;18.50;74.77;101086.84;4930071;29;20075;-67
2021/11/27 06:14:26;;;;;;;1.77;0.63;;;;;;;18.59;74.69;101092.09;4922309;29;20120;-66
2021/11/27 06:16:53;;;;;;;1.88;0.95;;;;;;;18.69;74.41;101095.56;4914669;29;20082;-66
2021/11/27 06:19:21;;;;;;;1.63;0.77;;;;;;;18.73;74.18;101091.03;4914724;29;20052;-67
2021/11/27 06:21:49;;;;;;;1.05;0.35;;;;;;;18.73;73.97;101091.91;4914522;28;20100;-66
2021/11/27 06:24:17;;;;;;;0.45;0.38;;;;;;;18.73;74.03;101097.28;4929022;28;20063;-66
2021/11/27 06:26:44;;;;;;;0.35;0.35;;;;;;;18.76;73.99;101109.72;4923957;28;20127;-66
2021/11/27 06:29:13;;;;;;;0.82;0.25;;;;;;;18.81;74.00;101123.94;4924158;28;20044;-66
2021/11/27 06:31:41;;;;;;;0.35;0.28;;;;;;;18.85;74.23;101115.84;4923781;29;20063;-66
2021/11/27 06:34:08;;;;;;;0.55;0.30;;;;;;;18.98;74.19;101124.59;4923511;28;20039;-66
2021/11/27 06:36:36;;;;;;;0.95;0.60;;;;;;;19.11;73.90;101116.38;4939060;28;20047;-66
2021/11/27 06:39:04;;;;;;;1.30;0.55;;;;;;;19.20;73.18;101118.06;4926158;28;20527;-66
2021/11/27 06:41:32;;;;;;;1.17;0.65;;;;;;;19.25;73.07;101120.66;4922791;28;20104;-66
2021/11/27 06:44:35;;;;;;;0.73;0.55;;;;;;;19.29;72.90;101123.28;4921273;28;20052;-66
2021/11/27 06:47:03;;;;;;;1.70;0.30;;;;;;;19.27;72.85;101126.88;4922051;28;20106;-66
2021/11/27 06:49:32;;;;;;;1.52;0.35;;;;;;;19.24;72.79;101122.44;4937518;28;20131;-67
2021/11/27 06:51:59;;;;;;;0.70;0.40;;;;;;;19.24;72.86;101125.13;4921461;28;20176;-66
2021/11/27 06:54:27;;;;;;;0.52;0.25;;;;;;;19.27;72.74;101119.75;4937497;28;20460;-66
2021/11/27 06:56:54;;;;;;;1.17;0.50;;;;;;;19.33;72.94;101118.75;4952091;28;20079;-66
2021/11/27 06:59:26;;;;;;;0.20;0.20;;;;;;;19.39;72.99;101127.59;4919468;28;20051;-66
2021/11/27 07:02:01;;;;;;;0.15;0.13;;;;;;;19.46;72.72;101117.69;4924008;28;20054;-66
2021/11/27 07:04:52;;;;;;;0.73;0.50;;;;;;;19.52;72.61;101111.38;4917452;28;20143;-67
2021/11/27 07:07:46;;;;;;;0.20;0.20;;;;;;;19.56;72.15;101121.16;4925636;28;20072;-67
2021/11/27 07:10:26;;;;;;;0.17;0.17;;;;;;;19.57;72.14;101113.06;4922473;28;20055;-66
2021/11/27 07:13:03;;;;;;;0.47;0.47;;;;;;;19.59;72.10;101111.25;4928856;29;20052;-66
2021/11/27 07:15:32;;;;;;;0.00;0.00;;;;;;;19.63;72.31;101126.34;4925423;29;20440;-66
2021/11/27 07:18:01;;;;;;;0.95;0.50;;;;;;;19.72;72.23;101122.66;4913650;29;20054;-66
2021/11/27 07:20:30;;;;;;;2.08;0.20;;;;;;;19.83;72.52;101121.56;4917382;29;20067;-66
2021/11/27 07:22:57;;;;;;;2.67;0.32;;;;;;;20.02;72.60;101132.84;4930716;29;20043;-66
2021/11/27 07:25:29;;;;;;;0.95;0.38;;;;;;;20.23;72.82;101145.00;4931446;29;20044;-67
2021/11/27 07:28:18;;;;;;;0.30;0.30;;;;;;;20.61;72.81;101145.19;4890947;29;20050;-67
2021/11/27 07:30:45;;;;;;;0.95;0.45;;;;;;;20.97;72.75;101148.94;4897526;29;20044;-67
2021/11/27 07:33:14;;;;;;;0.70;0.15;;;;;;;21.25;72.46;101148.41;4911982;29;20114;-67
2021/11/27 07:35:42;;;;;;;0.77;0.43;;;;;;;21.51;72.48;101151.38;4923676;29;20561;-67
2021/11/27 07:38:10;;;;;;;0.50;0.30;;;;;;;21.75;72.11;101155.28;4923853;29;20509;-66
2021/11/27 07:40:37;;;;;;;0.98;0.45;;;;;;;22.05;72.28;101151.88;4931245;29;20417;-67
2021/11/27 07:43:06;;;;;;;1.27;0.60;;;;;;;22.41;72.12;101149.13;4927923;28;20496;-67
2021/11/27 07:45:34;;;;;;;0.75;0.30;;;;;;;22.74;71.99;101150.94;4913901;29;20048;-67
2021/11/27 07:48:19;;;;;;;0.65;0.22;;;;;;;23.04;71.90;101150.03;4899715;29;20044;-67
2021/11/27 07:51:13;;;;;;;2.25;0.68;;;;;;;23.29;71.61;101152.91;4913641;29;20054;-67
2021/11/27 07:53:47;;;;;;;1.63;0.68;;;;;;;23.39;69.62;101146.28;4930312;29;20413;-68
2021/11/27 07:56:15;;;;;;;1.52;0.30;;;;;;;23.45;68.00;101155.97;4917044;29;20035;-67
2021/11/27 07:58:43;;;;;;;1.02;0.82;;;;;;;23.45;66.33;101151.47;4929632;29;20435;-67
2021/11/27 08:01:11;;;;;;;0.60;0.30;;;;;;;23.30;64.95;101154.63;4933408;29;20373;-67
2021/11/27 08:03:40;;;;;;;1.63;0.40;;;;;;;23.03;64.14;101168.97;4912445;29;20048;-67
2021/11/27 08:06:08;;;;;;;2.40;0.55;;;;;;;22.81;64.82;101166.00;4912433;29;20067;-67
2021/11/27 08:08:37;;;;;;;1.60;0.50;;;;;;;22.68;65.10;101153.75;4921266;29;20056;-67
2021/11/27 08:11:06;;;;;;;0.55;0.47;;;;;;;22.60;64.19;101155.78;4912300;29;20040;-67
2021/11/27 08:13:34;;;;;;;0.40;0.30;;;;;;;22.52;64.19;101150.59;4912160;29;20431;-67
2021/11/27 08:16:02;;;;;;;0.50;0.30;;;;;;;22.47;63.87;101152.53;4913009;29;20054;-67
2021/11/27 08:18:29;;;;;;;0.55;0.40;;;;;;;22.42;63.78;101145.53;4917036;29;20095;-67
2021/11/27 08:21:00;;;;;;;1.85;0.40;;;;;;;22.38;63.40;101142.06;4911748;29;20382;-67
2021/11/27 08:23:28;;;;;;;1.65;0.60;;;;;;;22.30;62.84;101133.28;4915821;28;20558;-67
2021/11/27 08:25:55;;;;;;;2.50;0.47;;;;;;;22.25;61.96;101133.38;4916216;29;20036;-66
2021/11/27 08:28:23;;;;;;;1.10;0.60;;;;;;;22.18;61.69;101118.38;4925416;29;20044;-67
2021/11/27 08:30:51;;;;;;;1.17;0.60;;;;;;;22.13;61.49;101120.28;4935000;29;20169;-67
2021/11/27 08:33:19;;;;;;;1.20;0.80;;;;;;;22.06;61.35;101110.59;4925845;29;20510;-68
2021/11/27 08:35:47;;;;;;;1.42;0.80;;;;;;;22.05;61.16;101116.94;4904949;29;20060;-67
2021/11/27 08:38:17;;;;;;;2.65;0.65;;;;;;;22.03;61.29;101118.75;4903282;29;20511;-67
2021/11/27 08:40:45;;;;;;;1.33;0.70;;;;;;;22.02;61.07;101117.00;4897565;29;20076;-68
2021/11/27 08:43:14;;;;;;;0.65;0.35;;;;;;;21.95;61.25;101120.72;4934981;29;20127;-68
2021/11/27 08:45:43;;;;;;;1.10;0.70;;;;;;;21.89;61.64;101115.50;4935237;29;20104;-67
2021/11/27 08:48:11;;;;;;;0.82;0.50;;;;;;;21.83;61.66;101116.53;4929363;29;20631;-67
2021/11/27 08:50:39;;;;;;;1.55;0.60;;;;;;;21.78;61.80;101114.91;4910507;29;20076;-66
2021/11/27 08:53:07;;;;;;;0.70;0.50;;;;;;;21.71;61.82;101118.66;4911995;29;20588;-67
2021/11/27 08:55:36;;;;;;;1.05;0.40;;;;;;;21.63;62.30;101113.47;4926428;29;20127;-67
2021/11/27 08:58:04;;;;;;;0.93;0.43;;;;;;;21.56;62.75;101111.84;4917005;29;20055;-67
2021/11/27 09:00:32;;;;;;;1.40;0.80;;;;;;;21.55;63.04;101111.88;4915518;29;20043;-67
2021/11/27 09:03:00;;;;;;;1.05;0.63;;;;;;;21.52;63.01;101118.22;4914660;29;20067;-67
2021/11/27 09:05:28;;;;;;;2.28;0.70;;;;;;;21.51;63.34;101108.38;4913772;29;20186;-67
2021/11/27 09:07:55;;;;;;;1.73;0.90;;;;;;;21.53;63.51;101105.66;4906369;29;20054;-67
2021/11/27 09:10:24;;;;;;;1.60;0.52;;;;;;;21.56;63.33;101111.84;4914365;29;20095;-66
2021/11/27 09:12:53;;;;;;;2.00;1.08;;;;;;;21.62;63.47;101102.75;4911587;29;20056;-67
2021/11/27 09:15:21;;;;;;;2.30;0.93;;;;;;;21.65;63.22;101108.06;4913683;29;20496;-66
2021/11/27 09:17:50;;;;;;;1.55;0.95;;;;;;;21.67;63.02;101093.63;4907993;29;20127;-67
2021/11/27 09:20:19;;;;;;;1.23;0.73;;;;;;;21.69;63.17;101098.97;4911958;29;20123;-67
2021/11/27 09:22:46;;;;;;;0.77;0.50;;;;;;;21.80;63.21;101088.84;4916008;29;20050;-67
2021/11/27 09:25:14;;;;;;;2.80;0.75;;;;;;;22.01;62.60;101092.81;4913303;29;20575;-68
2021/11/27 09:27:42;;;;;;;2.40;0.50;;;;;;;22.25;61.16;101084.97;4907968;29;20404;-67
2021/11/27 09:30:13;;;;;;;2.95;0.93;;;;;;;22.48;60.43;101073.59;4905113;29;20040;-67
2021/11/27 09:32:41;;;;;;;2.42;0.95;;;;;;;22.69;59.83;101071.22;4911435;29;20058;-68
2021/11/27 09:35:09;;;;;;;1.23;0.57;;;;;;;22.81;59.45;101070.88;4910726;29;20049;-67
2021/11/27 09:37:37;;;;;;;0.65;0.38;;;;;;;22.95;59.67;101053.38;4908928;29;20052;-67
2021/11/27 09:40:07;;;;;;;3.33;0.82;;;;;;;23.04;59.43;101063.84;4904664;29;20053;-67
2021/11/27 09:42:36;;;;;;;1.05;0.40;;;;;;;23.07;59.04;101046.72;4898834;29;20052;-67
2021/11/27 09:45:07;;;;;;;0.90;0.60;;;;;;;22.99;58.21;101041.56;4903436;29;20052;-67
2021/11/27 09:47:38;;;;;;;2.95;0.68;;;;;;;22.92;58.25;101048.06;4907665;29;20104;-66
2021/11/27 09:50:08;;;;;;;0.80;0.63;;;;;;;22.85;57.83;101035.72;4905917;29;20050;-67
2021/11/27 09:52:37;;;;;;;1.10;0.80;;;;;;;22.78;57.43;101028.75;4911191;29;20088;-67
2021/11/27 09:55:25;;;;;;;1.10;0.73;;;;;;;22.66;57.70;101024.59;4888680;29;20413;-67
2021/11/27 09:57:53;;;;;;;0.80;0.50;;;;;;;22.63;57.98;101024.72;4888229;29;20459;-67
2021/11/27 10:00:22;;;;;;;1.80;0.55;;;;;;;22.63;57.91;101026.50;4912126;29;20048;-67
2021/11/27 10:02:56;;;;;;;0.75;0.50;;;;;;;22.67;58.04;101025.47;4910390;29;20107;-67
2021/11/27 10:05:25;;;;;;;1.88;0.73;;;;;;;22.75;58.19;101025.28;4895378;29;20041;-67
2021/11/27 10:07:54;;;;;;;2.72;0.70;;;;;;;22.82;58.63;101014.28;4906290;29;20630;-66
2021/11/27 10:10:23;;;;;;;1.92;0.90;;;;;;;22.97;58.58;101021.03;4889981;29;20058;-67
2021/11/27 10:12:51;;;;;;;1.77;0.88;;;;;;;23.09;58.14;101023.31;4888137;29;20048;-67
2021/11/27 10:15:19;;;;;;;0.47;0.47;;;;;;;23.22;57.49;101029.19;4912663;28;20048;-66
2021/11/27 10:17:47;;;;;;;2.20;0.60;;;;;;;23.38;57.60;101014.28;4910367;29;20052;-67
2021/11/27 10:20:18;;;;;;;2.30;0.88;;;;;;;23.57;57.65;101003.78;4926773;29;20047;-68
2021/11/27 10:22:49;;;;;;;2.88;0.82;;;;;;;23.75;56.90;100993.28;4910232;29;20095;-68
2021/11/27 10:25:28;;;;;;;1.55;0.77;;;;;;;23.91;56.32;100992.72;4909911;29;20040;-67
2021/11/27 10:28:16;;;;;;;1.92;0.88;;;;;;;23.96;55.70;100990.75;4913777;28;20515;-68
2021/11/27 10:30:52;;;;;;;1.75;0.52;;;;;;;23.91;56.04;100984.63;4899758;29;20489;-68
2021/11/27 10:33:21;;;;;;;2.38;0.75;;;;;;;23.88;56.07;100996.41;4899051;29;20127;-67
2021/11/27 10:35:53;;;;;;;2.47;0.68;;;;;;;23.89;56.33;100989.22;4902124;29;20044;-67
2021/11/27 10:38:21;;;;;;;2.47;0.90;;;;;;;23.91;56.24;100977.41;4901439;29;20040;-67
2021/11/27 10:40:58;;;;;;;1.48;0.40;;;;;;;23.82;55.53;100983.16;4898738;28;20048;-67
2021/11/27 10:43:26;;;;;;;1.08;0.68;;;;;;;23.55;55.15;100985.00;4904951;29;20039;-67
2021/11/27 10:45:53;;;;;;;0.70;0.40;;;;;;;23.26;55.60;100988.63;4895953;29;20036;-66
2021/11/27 10:48:42;;;;;;;1.25;0.68;;;;;;;23.09;56.15;100984.72;4902292;28;20037;-66
2021/11/27 10:51:20;;;;;;;0.65;0.30;;;;;;;23.01;56.69;100976.88;4908344;29;20052;-66
2021/11/27 10:53:54;;;;;;;0.57;0.30;;;;;;;22.92;56.74;100974.47;4893994;29;20047;-67
2021/11/27 10:56:22;;;;;;;2.17;0.43;;;;;;;22.83;56.69;100974.78;4884303;29;20052;-66
2021/11/27 10:59:00;;;;;;;0.30;0.30;;;;;;;22.73;56.79;100966.09;4897025;29;20092;-66
2021/11/27 11:01:28;;;;;;;1.92;0.50;;;;;;;22.60;57.04;100953.91;4887512;29;20400;-66
2021/11/27 11:03:56;;;;;;;1.75;0.60;;;;;;;22.50;57.00;100942.56;4891328;29;20469;-66
2021/11/27 11:06:28;;;;;;;1.30;0.55;;;;;;;22.49;57.23;100932.72;4854528;29;20048;-66
2021/11/27 11:08:57;;;;;;;1.73;0.47;;;;;;;22.59;56.98;100934.19;4905934;29;20136;-66
2021/11/27 11:11:28;;;;;;;1.42;0.57;;;;;;;22.78;56.70;100923.75;4890875;29;20044;-66
2021/11/27 11:13:58;;;;;;;3.33;0.70;;;;;;;22.86;56.52;100919.00;4891086;29;20080;-67
2021/11/27 11:16:28;;;;;;;2.63;0.68;;;;;;;22.83;56.44;100915.56;4890679;29;20123;-66
2021/11/27 11:19:13;;;;;;;1.65;1.10;;;;;;;22.85;56.74;100903.78;4880827;29;20052;-66
2021/11/27 11:22:09;;;;;;;0.70;0.30;;;;;;;22.81;56.83;100906.63;4905957;29;20052;-66
2021/11/27 11:24:37;;;;;;;1.17;0.68;;;;;;;22.76;56.79;100905.91;4906974;29;20056;-66
2021/11/27 11:27:08;;;;;;;0.70;0.40;;;;;;;22.80;56.49;100905.75;4897309;29;20048;-67
2021/11/27 11:29:45;;;;;;;2.65;0.88;;;;;;;22.91;56.30;100900.00;4903466;29;20449;-67
2021/11/27 11:32:17;;;;;;;3.00;0.93;;;;;;;22.85;55.91;100903.78;4902468;29;20048;-66
2021/11/27 11:34:46;;;;;;;1.20;0.73;;;;;;;22.78;55.98;100902.22;4901843;29;20104;-67
2021/11/27 11:37:16;;;;;;;1.85;0.40;;;;;;;22.74;55.85;100888.91;4909792;29;20080;-66
2021/11/27 11:39:44;;;;;;;1.90;0.65;;;;;;;22.67;56.02;100864.88;4904741;29;20047;-67